Monte — V2FS2 — position and weather

sailwx.info

Track history (hours):
 
Tides and Currents Weather Stations Pressure Air Temp Water Temp Dewpoint Dewpoint Depression Visibility Wind Speed Wind Dir Waves Ship Positions

Monte

Last reported at 2017-Jun-24 00:10 UTC. Time now 2017-Jun-24 05:12 UTC.
Position N 49°27' W 003°48'.

Length 104 m; draft 6.3 m.

Type: Cargo ship. MMSI: 305777000.

Date/timePositionNaut miles runAvg speedWind from/ knotsBaromVisibWave heightAir tempDewpointWater temp
2017-Jun-24 00:10N 49°27' W 003°48'32 7.7
2017-Jun-23 20:05N 49°11' W 004°29'2 8.6
2017-Jun-23 19:53N 49°10' W 004°32'4 8.7
2017-Jun-23 19:28N 49°08' W 004°36'7 9.2
2017-Jun-23 18:41N 49°05' W 004°46'2 9.8
2017-Jun-23 18:28N 49°04' W 004°49'510.1
2017-Jun-23 18:00N 49°01' W 004°55'510.3
2017-Jun-23 17:29N 48°58' W 005°02'510.8
2017-Jun-23 17:00N 48°56' W 005°09'610.9
2017-Jun-23 16:25N 48°53' W 005°17'511.2
2017-Jun-23 15:57N 48°50' W 005°24'  
2017-Jun-21 02:17N 39°44' W 009°49'1510.0
2017-Jun-21 00:50N 39°29' W 009°50'510.1
2017-Jun-21 00:18N 39°24' W 009°50'310.0
2017-Jun-21 00:00N 39°21' W 009°50'5 9.7
2017-Jun-20 23:30N 39°16' W 009°50'5 9.8
2017-Jun-20 23:00N 39°11' W 009°50'5 9.8
2017-Jun-20 22:30N 39°06' W 009°50'5 9.6
2017-Jun-20 22:00N 39°01' W 009°50'5 9.5
2017-Jun-20 21:30N 38°57' W 009°50'510.0
2017-Jun-20 21:00N 38°52' W 009°50'5 9.7
2017-Jun-20 20:30N 38°47' W 009°50'5 9.5
2017-Jun-20 20:00N 38°42' W 009°50'5 9.2
2017-Jun-20 19:30N 38°38' W 009°49'5 9.4
2017-Jun-20 19:00N 38°34' W 009°45'5 9.4
2017-Jun-20 18:30N 38°31' W 009°41'5 9.5
2017-Jun-20 18:00N 38°27' W 009°37'5 9.4
2017-Jun-20 17:30N 38°24' W 009°32'5 9.8
2017-Jun-20 17:00N 38°23' W 009°26'510.0
2017-Jun-20 16:30N 38°22' W 009°20'6 9.8
2017-Jun-20 15:54N 38°21' W 009°12'410.2
2017-Jun-20 15:30N 38°23' W 009°08'5 9.8
2017-Jun-20 15:00N 38°25' W 009°02'9 9.1
2017-Jun-20 14:00N 38°31' W 008°54'2 3.8
2017-Jun-20 13:30N 38°30' W 008°51'0 0.0
2017-Jun-20 12:54N 38°30' W 008°51'0 0.0
2017-Jun-20 12:30N 38°30' W 008°51'0 0.0
2017-Jun-20 11:00N 38°30' W 008°51'0 0.0
2017-Jun-20 10:21N 38°30' W 008°51'0 0.0
2017-Jun-20 09:51N 38°30' W 008°51'0 0.0
2017-Jun-20 09:27N 38°30' W 008°51'0 0.0
2017-Jun-20 08:57N 38°30' W 008°51'0 0.0
2017-Jun-20 08:27N 38°30' W 008°51'0 0.0
2017-Jun-20 07:57N 38°30' W 008°51'0 0.0
2017-Jun-20 07:21N 38°30' W 008°51'0 0.0
2017-Jun-20 07:00N 38°30' W 008°51'0 0.0
2017-Jun-20 06:30N 38°30' W 008°51'0 0.0
2017-Jun-20 06:00N 38°30' W 008°51'0 0.0
2017-Jun-20 05:30N 38°30' W 008°51'0 0.0
2017-Jun-20 05:00N 38°30' W 008°51'0 0.0
2017-Jun-20 04:27N 38°30' W 008°51'0 0.0
2017-Jun-20 03:54N 38°30' W 008°51'0 0.0
2017-Jun-20 03:27N 38°30' W 008°51'0 0.0
2017-Jun-20 03:00N 38°30' W 008°51'0 0.0
2017-Jun-20 02:30N 38°30' W 008°51'0 0.0
2017-Jun-20 02:00N 38°30' W 008°51'0 0.0
2017-Jun-20 01:30N 38°30' W 008°51'0 0.0
2017-Jun-20 01:00N 38°30' W 008°51'0 0.0
2017-Jun-20 00:30N 38°30' W 008°51'0 0.0
2017-Jun-20 00:00N 38°30' W 008°51'0 0.0
2017-Jun-19 23:30N 38°30' W 008°51'0 0.0
2017-Jun-19 23:00N 38°30' W 008°51'0 0.0
2017-Jun-19 22:30N 38°30' W 008°51'0 0.0
2017-Jun-19 22:00N 38°30' W 008°51'0 0.0
2017-Jun-19 21:30N 38°30' W 008°51'0 0.0
2017-Jun-19 21:00N 38°30' W 008°51'0 0.0
2017-Jun-19 20:30N 38°30' W 008°51'0 0.0
2017-Jun-19 20:00N 38°30' W 008°51'0 0.0
2017-Jun-19 19:30N 38°30' W 008°51'0 0.0
2017-Jun-19 18:06N 38°30' W 008°51'0 0.0
2017-Jun-19 17:57N 38°30' W 008°51'0 0.0
2017-Jun-19 17:27N 38°30' W 008°51'0 0.0
2017-Jun-19 16:51N 38°30' W 008°51'0 0.0
2017-Jun-19 16:30N 38°30' W 008°51'0 0.0
2017-Jun-19 15:00N 38°30' W 008°51'0 0.0
2017-Jun-19 12:30N 38°30' W 008°51'0 0.0
2017-Jun-19 11:54N 38°30' W 008°51'0 0.0
2017-Jun-19 11:30N 38°30' W 008°51'0 0.0
2017-Jun-19 11:00N 38°30' W 008°51'0 0.0
2017-Jun-19 10:30N 38°30' W 008°51'0 0.0
2017-Jun-19 10:00N 38°30' W 008°51'0 0.0
2017-Jun-19 09:24N 38°30' W 008°51'0 0.0
2017-Jun-19 09:00N 38°30' W 008°51'0 0.0
2017-Jun-19 08:30N 38°30' W 008°51'0 0.0
2017-Jun-19 08:00N 38°30' W 008°51'0 0.0
2017-Jun-19 07:30N 38°30' W 008°51'0 0.0
2017-Jun-19 07:00N 38°30' W 008°51'0 0.0
2017-Jun-19 06:23N 38°30' W 008°51'0 0.0
2017-Jun-19 05:59N 38°30' W 008°51'0 0.0
2017-Jun-19 05:26N 38°30' W 008°51'0 0.0
2017-Jun-19 04:59N 38°30' W 008°51'0 0.0
2017-Jun-19 04:29N 38°30' W 008°51'0 0.0
2017-Jun-19 03:59N 38°30' W 008°51'0 0.0
2017-Jun-19 03:29N 38°30' W 008°51'0 0.0
2017-Jun-19 02:59N 38°30' W 008°51'0 0.0
2017-Jun-19 02:29N 38°30' W 008°51'0 0.0
2017-Jun-19 01:56N 38°30' W 008°51'0 0.0
2017-Jun-19 01:29N 38°30' W 008°51'0 0.0
2017-Jun-19 00:53N 38°30' W 008°51'0 0.0
2017-Jun-19 00:29N 38°30' W 008°51'0 0.0
2017-Jun-18 23:59N 38°30' W 008°51'0 0.0
2017-Jun-18 23:29N 38°30' W 008°51'0 0.0
2017-Jun-18 22:59N 38°30' W 008°51'0 0.0
2017-Jun-18 22:29N 38°30' W 008°51'0 0.0
2017-Jun-18 21:59N 38°30' W 008°51'0 0.0
2017-Jun-18 21:29N 38°30' W 008°51'0 0.0
2017-Jun-18 20:59N 38°30' W 008°51'0 0.0
2017-Jun-18 20:29N 38°30' W 008°51'0 0.0
2017-Jun-18 19:59N 38°30' W 008°51'0 0.0
2017-Jun-18 19:29N 38°30' W 008°51'0 0.0
2017-Jun-18 18:59N 38°30' W 008°51'0 0.0
2017-Jun-18 18:29N 38°30' W 008°51'0 0.0
2017-Jun-18 17:59N 38°30' W 008°51'0 0.0
2017-Jun-18 17:29N 38°30' W 008°51'0 0.0
2017-Jun-18 16:59N 38°30' W 008°51'0 0.0
2017-Jun-18 16:29N 38°30' W 008°51'0 0.1
2017-Jun-18 16:00N 38°30' W 008°51'3 6.4
2017-Jun-18 15:30N 38°30' W 008°55'5 9.5
2017-Jun-18 15:00N 38°26' W 008°59'6 6.0
2017-Jun-18 14:00N 38°21' W 008°55'0 0.8
2017-Jun-18 13:28N 38°20' W 008°56'0 0.7
2017-Jun-18 12:58N 38°20' W 008°56'0 0.7
2017-Jun-18 12:28N 38°20' W 008°56'0 0.7
2017-Jun-18 11:58N 38°20' W 008°57'0 0.8
2017-Jun-18 11:28N 38°20' W 008°57'0 0.6
2017-Jun-18 10:55N 38°20' W 008°58'0 0.5
2017-Jun-18 10:25N 38°20' W 008°58'0 0.3
2017-Jun-18 09:55N 38°20' W 008°58'0 0.3
2017-Jun-18 09:25N 38°20' W 008°58'0 0.4
2017-Jun-18 08:58N 38°20' W 008°58'0 0.1
2017-Jun-18 08:28N 38°20' W 008°59'0 0.1
2017-Jun-18 07:58N 38°20' W 008°59'0 0.1
2017-Jun-18 07:25N 38°20' W 008°59'0 0.4
2017-Jun-18 06:58N 38°20' W 008°59'0 0.3
2017-Jun-18 06:28N 38°20' W 008°59'0 0.3
2017-Jun-18 05:58N 38°20' W 008°59'0 0.4
2017-Jun-18 05:30N 38°19' W 008°59'0 0.1
2017-Jun-18 05:00N 38°19' W 008°59'1 1.5
2017-Jun-18 04:30N 38°19' W 008°59'4 7.9
2017-Jun-18 04:00N 38°15' W 009°00'4 7.9
2017-Jun-18 03:30N 38°11' W 009°01'4 8.0
2017-Jun-18 03:00N 38°07' W 009°02'4 7.9
2017-Jun-18 02:30N 38°03' W 009°03'4 8.2
2017-Jun-18 02:00N 37°59' W 009°05'4 8.7
2017-Jun-18 01:30N 37°55' W 009°07'4 8.8
2017-Jun-18 01:00N 37°51' W 009°08'4 8.9
2017-Jun-18 00:31N 37°46' W 009°09'4 8.8
2017-Jun-18 00:00N 37°42' W 009°10'17 8.5
2017-Jun-17 22:04N 37°26' W 009°13'2 8.8
2017-Jun-17 21:54N 37°24' W 009°13'3 8.4
2017-Jun-17 21:30N 37°21' W 009°15'4 8.4
2017-Jun-17 21:00N 37°17' W 009°16'4 8.5
2017-Jun-17 20:30N 37°13' W 009°17'4 8.5
2017-Jun-17 20:00N 37°09' W 009°18'4 8.9
2017-Jun-17 19:30N 37°04' W 009°19'5 9.1
2017-Jun-17 19:00N 36°60' W 009°20'5 9.5
2017-Jun-17 18:30N 36°55' W 009°19'5 9.2
2017-Jun-17 18:00N 36°51' W 009°16'5 9.8
2017-Jun-17 17:30N 36°48' W 009°11'5 9.7
2017-Jun-17 17:00N 36°45' W 009°07'5 9.5
2017-Jun-17 16:30N 36°42' W 009°02'5 9.4
2017-Jun-17 16:00N 36°40' W 008°56'5 9.5
2017-Jun-17 15:31N 36°38' W 008°51'5 9.7
2017-Jun-17 15:00N 36°35' W 008°47'6 9.8
2017-Jun-17 14:24N 36°30' W 008°42'11 9.2
2017-Jun-17 13:12N 36°19' W 008°39'2 9.6
2017-Jun-17 12:58N 36°17' W 008°39'4 9.5
2017-Jun-17 12:30N 36°13' W 008°39'5 9.6
2017-Jun-17 12:00N 36°08' W 008°39'31 9.2
2017-Jun-17 08:40N 35°37' W 008°39'2 9.4
2017-Jun-17 08:30N 35°36' W 008°39'5 9.5
2017-Jun-17 08:00N 35°31' W 008°39'20 9.3
2017-Jun-17 05:53N 35°11' W 008°40'  
Track history (hours):
 
Tides and Currents Weather Stations Pressure Air Temp Water Temp Dewpoint Dewpoint Depression Visibility Wind Speed Wind Dir Waves Ship Positions

Monte

Last reported at 2017-Jun-24 00:10 UTC. Time now 2017-Jun-24 05:12 UTC.
Position N 49°27' W 003°48'.

Length 104 m; draft 6.3 m.

Type: Cargo ship. MMSI: 305777000.

Date/timePositionNaut miles runAvg speedWind from/ knotsBaromVisibWave heightAir tempDewpointWater temp
2017-Jun-24 00:10N 49°27' W 003°48'32 7.7
2017-Jun-23 20:05N 49°11' W 004°29'2 8.6
2017-Jun-23 19:53N 49°10' W 004°32'4 8.7
2017-Jun-23 19:28N 49°08' W 004°36'7 9.2
2017-Jun-23 18:41N 49°05' W 004°46'2 9.8
2017-Jun-23 18:28N 49°04' W 004°49'510.1
2017-Jun-23 18:00N 49°01' W 004°55'510.3
2017-Jun-23 17:29N 48°58' W 005°02'510.8
2017-Jun-23 17:00N 48°56' W 005°09'610.9
2017-Jun-23 16:25N 48°53' W 005°17'511.2
2017-Jun-23 15:57N 48°50' W 005°24'  
2017-Jun-21 02:17N 39°44' W 009°49'1510.0
2017-Jun-21 00:50N 39°29' W 009°50'510.1
2017-Jun-21 00:18N 39°24' W 009°50'310.0
2017-Jun-21 00:00N 39°21' W 009°50'5 9.7
2017-Jun-20 23:30N 39°16' W 009°50'5 9.8
2017-Jun-20 23:00N 39°11' W 009°50'5 9.8
2017-Jun-20 22:30N 39°06' W 009°50'5 9.6
2017-Jun-20 22:00N 39°01' W 009°50'5 9.5
2017-Jun-20 21:30N 38°57' W 009°50'510.0
2017-Jun-20 21:00N 38°52' W 009°50'5 9.7
2017-Jun-20 20:30N 38°47' W 009°50'5 9.5
2017-Jun-20 20:00N 38°42' W 009°50'5 9.2
2017-Jun-20 19:30N 38°38' W 009°49'5 9.4
2017-Jun-20 19:00N 38°34' W 009°45'5 9.4
2017-Jun-20 18:30N 38°31' W 009°41'5 9.5
2017-Jun-20 18:00N 38°27' W 009°37'5 9.4
2017-Jun-20 17:30N 38°24' W 009°32'5 9.8
2017-Jun-20 17:00N 38°23' W 009°26'510.0
2017-Jun-20 16:30N 38°22' W 009°20'6 9.8
2017-Jun-20 15:54N 38°21' W 009°12'410.2
2017-Jun-20 15:30N 38°23' W 009°08'5 9.8
2017-Jun-20 15:00N 38°25' W 009°02'9 9.1
2017-Jun-20 14:00N 38°31' W 008°54'2 3.8
2017-Jun-20 13:30N 38°30' W 008°51'0 0.0
2017-Jun-20 12:54N 38°30' W 008°51'0 0.0
2017-Jun-20 12:30N 38°30' W 008°51'0 0.0
2017-Jun-20 11:00N 38°30' W 008°51'0 0.0
2017-Jun-20 10:21N 38°30' W 008°51'0 0.0
2017-Jun-20 09:51N 38°30' W 008°51'0 0.0
2017-Jun-20 09:27N 38°30' W 008°51'0 0.0
2017-Jun-20 08:57N 38°30' W 008°51'0 0.0
2017-Jun-20 08:27N 38°30' W 008°51'0 0.0
2017-Jun-20 07:57N 38°30' W 008°51'0 0.0
2017-Jun-20 07:21N 38°30' W 008°51'0 0.0
2017-Jun-20 07:00N 38°30' W 008°51'0 0.0
2017-Jun-20 06:30N 38°30' W 008°51'0 0.0
2017-Jun-20 06:00N 38°30' W 008°51'0 0.0
2017-Jun-20 05:30N 38°30' W 008°51'0 0.0
2017-Jun-20 05:00N 38°30' W 008°51'0 0.0
2017-Jun-20 04:27N 38°30' W 008°51'0 0.0
2017-Jun-20 03:54N 38°30' W 008°51'0 0.0
2017-Jun-20 03:27N 38°30' W 008°51'0 0.0
2017-Jun-20 03:00N 38°30' W 008°51'0 0.0
2017-Jun-20 02:30N 38°30' W 008°51'0 0.0
2017-Jun-20 02:00N 38°30' W 008°51'0 0.0
2017-Jun-20 01:30N 38°30' W 008°51'0 0.0
2017-Jun-20 01:00N 38°30' W 008°51'0 0.0
2017-Jun-20 00:30N 38°30' W 008°51'0 0.0
2017-Jun-20 00:00N 38°30' W 008°51'0 0.0
2017-Jun-19 23:30N 38°30' W 008°51'0 0.0
2017-Jun-19 23:00N 38°30' W 008°51'0 0.0
2017-Jun-19 22:30N 38°30' W 008°51'0 0.0
2017-Jun-19 22:00N 38°30' W 008°51'0 0.0
2017-Jun-19 21:30N 38°30' W 008°51'0 0.0
2017-Jun-19 21:00N 38°30' W 008°51'0 0.0
2017-Jun-19 20:30N 38°30' W 008°51'0 0.0
2017-Jun-19 20:00N 38°30' W 008°51'0 0.0
2017-Jun-19 19:30N 38°30' W 008°51'0 0.0
2017-Jun-19 18:06N 38°30' W 008°51'0 0.0
2017-Jun-19 17:57N 38°30' W 008°51'0 0.0
2017-Jun-19 17:27N 38°30' W 008°51'0 0.0
2017-Jun-19 16:51N 38°30' W 008°51'0 0.0
2017-Jun-19 16:30N 38°30' W 008°51'0 0.0
2017-Jun-19 15:00N 38°30' W 008°51'0 0.0
2017-Jun-19 12:30N 38°30' W 008°51'0 0.0
2017-Jun-19 11:54N 38°30' W 008°51'0 0.0
2017-Jun-19 11:30N 38°30' W 008°51'0 0.0
2017-Jun-19 11:00N 38°30' W 008°51'0 0.0
2017-Jun-19 10:30N 38°30' W 008°51'0 0.0
2017-Jun-19 10:00N 38°30' W 008°51'0 0.0
2017-Jun-19 09:24N 38°30' W 008°51'0 0.0
2017-Jun-19 09:00N 38°30' W 008°51'0 0.0
2017-Jun-19 08:30N 38°30' W 008°51'0 0.0
2017-Jun-19 08:00N 38°30' W 008°51'0 0.0
2017-Jun-19 07:30N 38°30' W 008°51'0 0.0
2017-Jun-19 07:00N 38°30' W 008°51'0 0.0
2017-Jun-19 06:23N 38°30' W 008°51'0 0.0
2017-Jun-19 05:59N 38°30' W 008°51'0 0.0
2017-Jun-19 05:26N 38°30' W 008°51'0 0.0
2017-Jun-19 04:59N 38°30' W 008°51'0 0.0
2017-Jun-19 04:29N 38°30' W 008°51'0 0.0
2017-Jun-19 03:59N 38°30' W 008°51'0 0.0
2017-Jun-19 03:29N 38°30' W 008°51'0 0.0
2017-Jun-19 02:59N 38°30' W 008°51'0 0.0
2017-Jun-19 02:29N 38°30' W 008°51'0 0.0
2017-Jun-19 01:56N 38°30' W 008°51'0 0.0
2017-Jun-19 01:29N 38°30' W 008°51'0 0.0
2017-Jun-19 00:53N 38°30' W 008°51'0 0.0
2017-Jun-19 00:29N 38°30' W 008°51'0 0.0
2017-Jun-18 23:59N 38°30' W 008°51'0 0.0
2017-Jun-18 23:29N 38°30' W 008°51'0 0.0
2017-Jun-18 22:59N 38°30' W 008°51'0 0.0
2017-Jun-18 22:29N 38°30' W 008°51'0 0.0
2017-Jun-18 21:59N 38°30' W 008°51'0 0.0
2017-Jun-18 21:29N 38°30' W 008°51'0 0.0
2017-Jun-18 20:59N 38°30' W 008°51'0 0.0
2017-Jun-18 20:29N 38°30' W 008°51'0 0.0
2017-Jun-18 19:59N 38°30' W 008°51'0 0.0
2017-Jun-18 19:29N 38°30' W 008°51'0 0.0
2017-Jun-18 18:59N 38°30' W 008°51'0 0.0
2017-Jun-18 18:29N 38°30' W 008°51'0 0.0
2017-Jun-18 17:59N 38°30' W 008°51'0 0.0
2017-Jun-18 17:29N 38°30' W 008°51'0 0.0
2017-Jun-18 16:59N 38°30' W 008°51'0 0.0
2017-Jun-18 16:29N 38°30' W 008°51'0 0.1
2017-Jun-18 16:00N 38°30' W 008°51'3 6.4
2017-Jun-18 15:30N 38°30' W 008°55'5 9.5
2017-Jun-18 15:00N 38°26' W 008°59'6 6.0
2017-Jun-18 14:00N 38°21' W 008°55'0 0.8
2017-Jun-18 13:28N 38°20' W 008°56'0 0.7
2017-Jun-18 12:58N 38°20' W 008°56'0 0.7
2017-Jun-18 12:28N 38°20' W 008°56'0 0.7
2017-Jun-18 11:58N 38°20' W 008°57'0 0.8
2017-Jun-18 11:28N 38°20' W 008°57'0 0.6
2017-Jun-18 10:55N 38°20' W 008°58'0 0.5
2017-Jun-18 10:25N 38°20' W 008°58'0 0.3
2017-Jun-18 09:55N 38°20' W 008°58'0 0.3
2017-Jun-18 09:25N 38°20' W 008°58'0 0.4
2017-Jun-18 08:58N 38°20' W 008°58'0 0.1
2017-Jun-18 08:28N 38°20' W 008°59'0 0.1
2017-Jun-18 07:58N 38°20' W 008°59'0 0.1
2017-Jun-18 07:25N 38°20' W 008°59'0 0.4
2017-Jun-18 06:58N 38°20' W 008°59'0 0.3
2017-Jun-18 06:28N 38°20' W 008°59'0 0.3
2017-Jun-18 05:58N 38°20' W 008°59'0 0.4
2017-Jun-18 05:30N 38°19' W 008°59'0 0.1
2017-Jun-18 05:00N 38°19' W 008°59'1 1.5
2017-Jun-18 04:30N 38°19' W 008°59'4 7.9
2017-Jun-18 04:00N 38°15' W 009°00'4 7.9
2017-Jun-18 03:30N 38°11' W 009°01'4 8.0
2017-Jun-18 03:00N 38°07' W 009°02'4 7.9
2017-Jun-18 02:30N 38°03' W 009°03'4 8.2
2017-Jun-18 02:00N 37°59' W 009°05'4 8.7
2017-Jun-18 01:30N 37°55' W 009°07'4 8.8
2017-Jun-18 01:00N 37°51' W 009°08'4 8.9
2017-Jun-18 00:31N 37°46' W 009°09'4 8.8
2017-Jun-18 00:00N 37°42' W 009°10'17 8.5
2017-Jun-17 22:04N 37°26' W 009°13'2 8.8
2017-Jun-17 21:54N 37°24' W 009°13'3 8.4
2017-Jun-17 21:30N 37°21' W 009°15'4 8.4
2017-Jun-17 21:00N 37°17' W 009°16'4 8.5
2017-Jun-17 20:30N 37°13' W 009°17'4 8.5
2017-Jun-17 20:00N 37°09' W 009°18'4 8.9
2017-Jun-17 19:30N 37°04' W 009°19'5 9.1
2017-Jun-17 19:00N 36°60' W 009°20'5 9.5
2017-Jun-17 18:30N 36°55' W 009°19'5 9.2
2017-Jun-17 18:00N 36°51' W 009°16'5 9.8
2017-Jun-17 17:30N 36°48' W 009°11'5 9.7
2017-Jun-17 17:00N 36°45' W 009°07'5 9.5
2017-Jun-17 16:30N 36°42' W 009°02'5 9.4
2017-Jun-17 16:00N 36°40' W 008°56'5 9.5
2017-Jun-17 15:31N 36°38' W 008°51'5 9.7
2017-Jun-17 15:00N 36°35' W 008°47'6 9.8
2017-Jun-17 14:24N 36°30' W 008°42'11 9.2
2017-Jun-17 13:12N 36°19' W 008°39'2 9.6
2017-Jun-17 12:58N 36°17' W 008°39'4 9.5
2017-Jun-17 12:30N 36°13' W 008°39'5 9.6
2017-Jun-17 12:00N 36°08' W 008°39'31 9.2
2017-Jun-17 08:40N 35°37' W 008°39'2 9.4
2017-Jun-17 08:30N 35°36' W 008°39'5 9.5
2017-Jun-17 08:00N 35°31' W 008°39'20 9.3
2017-Jun-17 05:53N 35°11' W 008°40'  

Dump ship's entire track history